Time;durP1;ratioP1;P1;durP2;ratioP2;P2;SDS_P1;SDS_P2;PMS_P1;PMS_P2;Temp;Humidity;BMP_temperature;BMP_pressure;BME280_temperature;BME280_humidity;BME280_pressure;Samples;Min_cycle;Max_cycle;Signal;HPM_P1;HPM_P2
2023/05/08 00:02:17;;;;;;;7.80;4.00;;;;;;;14.10;100.00;98954.22;4902230;29;20243;-68
2023/05/08 00:04:49;;;;;;;9.13;3.90;;;;;;;14.11;100.00;98966.38;4876330;29;20259;-68
2023/05/08 00:07:15;;;;;;;5.20;3.87;;;;;;;14.12;100.00;98959.28;4902743;29;20697;-68
2023/05/08 00:10:08;;;;;;;12.93;4.83;;;;;;;14.14;100.00;98962.56;4909192;29;20264;-68
2023/05/08 00:12:35;;;;;;;5.83;3.73;;;;;;;14.15;100.00;98957.16;4919341;29;20234;-68
2023/05/08 00:15:04;;;;;;;4.60;3.67;;;;;;;14.14;100.00;98955.53;4922325;29;20719;-68
2023/05/08 00:17:31;;;;;;;10.80;3.37;;;;;;;14.15;100.00;98962.41;4922124;29;20414;-68
2023/05/08 00:19:57;;;;;;;8.37;3.73;;;;;;;14.16;100.00;98969.31;4923763;29;20595;-68
2023/05/08 00:22:24;;;;;;;6.77;4.10;;;;;;;14.17;100.00;98951.75;4920849;29;20240;-68
2023/05/08 00:24:51;;;;;;;6.10;3.47;;;;;;;14.16;100.00;98965.84;4881510;29;20245;-68
2023/05/08 00:27:17;;;;;;;7.80;3.27;;;;;;;14.17;100.00;98968.31;4892310;29;20301;-69
2023/05/08 00:29:49;;;;;;;6.03;3.60;;;;;;;14.19;100.00;98959.47;4830516;29;20443;-68
2023/05/08 00:32:16;;;;;;;4.50;3.30;;;;;;;14.18;100.00;98963.88;4922016;29;20782;-68
2023/05/08 00:34:49;;;;;;;5.93;3.07;;;;;;;14.19;100.00;98964.72;4919057;29;20709;-68
2023/05/08 00:37:16;;;;;;;6.33;3.47;;;;;;;14.18;100.00;98963.88;4908330;29;20225;-68
2023/05/08 00:39:49;;;;;;;5.53;2.90;;;;;;;14.23;100.00;98961.59;4912686;29;20768;-71
2023/05/08 00:42:15;;;;;;;5.30;2.73;;;;;;;14.18;100.00;98963.88;4904039;29;20226;-68
2023/05/08 00:45:08;;;;;;;6.77;3.30;;;;;;;14.21;100.00;98954.88;4918931;29;20246;-68
2023/05/08 00:47:36;;;;;;;5.87;3.50;;;;;;;14.15;100.00;98959.78;4908210;28;20567;-68
2023/05/08 00:50:03;;;;;;;5.43;3.57;;;;;;;14.15;100.00;98959.78;4923835;29;20634;-68
2023/05/08 00:52:31;;;;;;;8.07;3.43;;;;;;;14.14;100.00;98962.56;4920206;29;20238;-68
2023/05/08 00:54:58;;;;;;;5.33;3.50;;;;;;;14.14;100.00;98962.56;4912969;29;20723;-68
2023/05/08 00:57:25;;;;;;;7.50;4.00;;;;;;;14.09;100.00;98959.63;4913502;29;20288;-68
2023/05/08 00:59:52;;;;;;;4.13;3.20;;;;;;;14.07;100.00;98959.81;4922161;29;20300;-68
2023/05/08 01:02:19;;;;;;;4.50;2.90;;;;;;;14.05;100.00;98956.53;4917573;29;20233;-68
2023/05/08 01:04:52;;;;;;;4.20;3.13;;;;;;;14.06;100.00;98967.81;4902371;29;20244;-67
2023/05/08 01:07:18;;;;;;;6.63;3.50;;;;;;;14.07;100.00;98966.84;4916622;29;20613;-67
2023/05/08 01:09:50;;;;;;;5.63;2.87;;;;;;;14.10;100.00;98963.88;4900451;29;20736;-69
2023/05/08 01:12:24;;;;;;;9.00;3.20;;;;;;;14.10;100.00;98969.13;4904790;29;20234;-68
2023/05/08 01:15:09;;;;;;;6.33;2.73;;;;;;;14.08;100.00;98965.84;4916190;29;20230;-67
2023/05/08 01:17:57;;;;;;;7.00;2.73;;;;;;;14.11;100.00;98968.16;4913774;29;20272;-67
2023/05/08 01:20:39;;;;;;;9.17;2.87;;;;;;;14.07;100.00;98965.06;4900758;29;20229;-67
2023/05/08 01:23:51;;;;;;;5.30;2.27;;;;;;;14.09;100.00;98970.13;4900251;29;20227;-68
2023/05/08 01:26:46;;;;;;;6.60;2.70;;;;;;;14.05;100.00;98974.91;4864535;29;20286;-68
2023/05/08 01:29:49;;;;;;;4.43;2.80;;;;;;;14.08;100.00;98976.34;4896934;29;20247;-67
2023/05/08 01:32:20;;;;;;;6.10;2.80;;;;;;;14.08;100.00;98978.97;4899657;29;20234;-68
2023/05/08 01:34:58;;;;;;;3.17;2.70;;;;;;;14.07;100.00;98974.72;4895778;29;20251;-68
2023/05/08 01:37:32;;;;;;;5.27;2.77;;;;;;;14.09;100.00;98970.13;4900054;29;20225;-68
2023/05/08 01:40:07;;;;;;;6.93;3.07;;;;;;;14.06;100.00;98981.78;4906789;29;20228;-68
2023/05/08 01:42:42;;;;;;;8.70;3.40;;;;;;;14.06;100.00;98981.78;4916075;28;20293;-68
2023/05/08 01:45:16;;;;;;;5.40;3.20;;;;;;;14.07;100.00;98975.56;4915487;29;20288;-68
2023/05/08 01:47:51;;;;;;;5.10;3.37;;;;;;;14.10;100.00;98977.00;4901448;29;20264;-68
2023/05/08 01:50:22;;;;;;;3.70;3.10;;;;;;;14.10;100.00;98984.88;4917917;29;20230;-68
2023/05/08 01:52:51;;;;;;;4.40;3.53;;;;;;;14.11;100.00;98986.53;4917633;28;20245;-68
2023/05/08 01:55:24;;;;;;;5.93;3.53;;;;;;;14.13;100.00;98982.78;4910746;29;20296;-68
2023/05/08 01:57:53;;;;;;;4.40;3.23;;;;;;;14.12;100.00;98983.75;4893714;29;20245;-68
2023/05/08 02:00:23;;;;;;;5.43;3.23;;;;;;;14.10;100.00;98977.00;4907125;29;20239;-68
2023/05/08 02:02:52;;;;;;;4.27;3.37;;;;;;;14.12;100.00;98985.53;4916277;29;20297;-68
2023/05/08 02:05:22;;;;;;;7.60;3.03;;;;;;;14.11;100.00;98983.91;4913172;29;20830;-68
2023/05/08 02:07:51;;;;;;;7.57;3.20;;;;;;;14.13;100.00;98988.03;4901486;29;20240;-67
2023/05/08 02:10:19;;;;;;;4.83;3.27;;;;;;;14.14;100.00;98983.56;4908165;29;20652;-67
2023/05/08 02:12:48;;;;;;;6.57;3.30;;;;;;;14.15;100.00;98985.22;4917768;29;20234;-67
2023/05/08 02:15:17;;;;;;;4.93;3.60;;;;;;;14.13;100.00;98988.03;4909802;29;20253;-67
2023/05/08 02:17:46;;;;;;;8.03;3.50;;;;;;;14.12;100.00;98996.88;4916300;29;20328;-67
2023/05/08 02:20:15;;;;;;;10.37;4.10;;;;;;;14.10;100.00;98992.75;4920912;29;20710;-68
2023/05/08 02:22:43;;;;;;;6.57;3.73;;;;;;;14.10;100.00;98992.75;4918896;29;20237;-68
2023/05/08 02:25:13;;;;;;;8.27;3.53;;;;;;;14.09;100.00;98983.25;4921835;29;20313;-68
2023/05/08 02:27:42;;;;;;;4.03;3.30;;;;;;;14.10;100.00;98982.25;4898260;29;20281;-68
2023/05/08 02:30:12;;;;;;;6.15;3.40;;;;;;;14.12;100.00;98985.53;4897264;29;20512;-68
2023/05/08 02:32:41;;;;;;;4.50;2.90;;;;;;;14.11;100.00;98995.25;4904896;29;20231;-68
2023/05/08 02:35:10;;;;;;;7.77;3.03;;;;;;;14.12;100.00;98996.03;4920183;29;20234;-68
2023/05/08 02:37:39;;;;;;;6.43;3.33;;;;;;;14.08;100.00;98990.31;4892188;29;20605;-68
2023/05/08 02:40:08;;;;;;;6.30;3.00;;;;;;;14.04;100.00;98989.00;4914277;29;20243;-68
2023/05/08 02:42:35;;;;;;;5.87;3.07;;;;;;;14.06;100.00;98996.69;4920660;29;20229;-68
2023/05/08 02:45:01;;;;;;;7.37;2.90;;;;;;;14.05;100.00;98997.69;4919824;29;20297;-68
2023/05/08 02:47:38;;;;;;;3.93;2.90;;;;;;;14.03;100.00;99008.38;4914535;29;20255;-68
2023/05/08 02:50:13;;;;;;;7.17;4.33;;;;;;;14.08;100.00;99000.81;4916634;29;20852;-68
2023/05/08 02:52:45;;;;;;;6.37;3.17;;;;;;;14.05;100.00;98995.06;4901311;29;20225;-68
2023/05/08 02:55:23;;;;;;;8.20;3.27;;;;;;;14.03;100.00;98993.41;4918843;29;20278;-68
2023/05/08 02:57:58;;;;;;;4.30;3.53;;;;;;;14.02;100.00;99002.28;4916824;29;20226;-68
2023/05/08 03:04:02;;;;;;;5.60;3.27;;;;;;;14.00;100.00;98988.50;5595802;23;20243;-67
2023/05/08 03:06:36;;;;;;;4.73;2.90;;;;;;;14.00;100.00;98998.19;4922993;28;20230;-67
2023/05/08 03:09:07;;;;;;;3.47;2.90;;;;;;;14.02;100.00;98991.78;4913265;28;20239;-67
2023/05/08 03:11:40;;;;;;;4.27;3.60;;;;;;;14.02;100.00;98996.22;4912488;28;20319;-67
2023/05/08 03:14:10;;;;;;;4.20;2.90;;;;;;;14.03;100.00;98993.41;4920934;29;20241;-67
2023/05/08 03:16:39;;;;;;;6.20;3.27;;;;;;;14.03;100.00;99000.50;4895316;29;20238;-68
2023/05/08 03:19:12;;;;;;;5.43;3.37;;;;;;;14.01;100.00;98991.97;4903837;29;20238;-68
2023/05/08 03:21:42;;;;;;;10.13;3.23;;;;;;;14.01;100.00;98999.84;4885351;29;20238;-68
2023/05/08 03:24:13;;;;;;;8.30;2.87;;;;;;;14.01;100.00;98999.84;4889291;29;20245;-68
2023/05/08 03:26:42;;;;;;;9.07;2.77;;;;;;;14.03;100.00;99001.28;4894115;29;20245;-68
2023/05/08 03:29:09;;;;;;;4.43;2.90;;;;;;;14.03;100.00;98995.25;4909988;28;20948;-68
2023/05/08 03:31:37;;;;;;;8.13;3.13;;;;;;;14.04;100.00;98996.88;5164249;23;20233;-68
2023/05/08 03:34:04;;;;;;;5.20;2.90;;;;;;;14.02;100.00;98994.41;4939498;28;20330;-67
2023/05/08 03:36:31;;;;;;;5.87;3.07;;;;;;;14.02;100.00;98999.66;4923171;29;20288;-67
2023/05/08 03:38:59;;;;;;;6.57;3.63;;;;;;;14.04;100.00;99002.13;4934583;29;20241;-67
2023/05/08 03:41:28;;;;;;;3.87;2.57;;;;;;;14.08;100.00;98999.97;4919697;29;20252;-67
2023/05/08 03:43:56;;;;;;;5.27;2.97;;;;;;;14.08;100.00;99002.59;4922759;29;20581;-67
2023/05/08 03:46:23;;;;;;;4.97;2.67;;;;;;;14.07;100.00;99004.44;4906566;29;20231;-67
2023/05/08 03:48:51;;;;;;;4.53;2.97;;;;;;;14.06;100.00;99007.19;4904957;29;20238;-67
2023/05/08 03:51:19;;;;;;;5.20;2.93;;;;;;;14.07;100.00;99003.59;4912012;29;20235;-67
2023/05/08 03:53:46;;;;;;;4.20;3.10;;;;;;;14.04;100.00;99004.75;4897436;29;20717;-67
2023/05/08 03:56:13;;;;;;;6.07;3.30;;;;;;;14.05;100.00;99003.78;4908015;29;20233;-67
2023/05/08 03:58:47;;;;;;;5.43;2.90;;;;;;;14.06;100.00;99010.66;4921479;29;20243;-67
2023/05/08 04:01:28;;;;;;;4.00;3.60;;;;;;;14.08;100.00;99005.22;4923910;29;20241;-67
2023/05/08 04:04:04;;;;;;;5.93;3.40;;;;;;;14.10;100.00;99006.72;4904827;29;20637;-67
2023/05/08 04:06:37;;;;;;;5.40;3.10;;;;;;;14.09;100.00;99012.13;4923114;29;20420;-67
2023/05/08 04:09:08;;;;;;;3.60;3.30;;;;;;;14.08;100.00;99013.09;4926837;29;20234;-67
2023/05/08 04:11:41;;;;;;;8.07;3.47;;;;;;;14.07;100.00;99014.94;4907080;29;20331;-67
2023/05/08 04:14:16;;;;;;;3.40;3.10;;;;;;;14.05;100.00;99010.81;4909712;29;20560;-67
2023/05/08 04:16:49;;;;;;;5.37;3.20;;;;;;;14.05;100.00;99013.44;4923040;29;20236;-67
2023/05/08 04:19:20;;;;;;;6.40;3.10;;;;;;;14.06;100.00;99017.69;4909559;29;20565;-67
2023/05/08 04:21:49;;;;;;;5.10;3.33;;;;;;;14.07;100.00;99014.09;4906793;29;20706;-67
2023/05/08 04:24:17;;;;;;;4.43;3.30;;;;;;;14.09;100.00;99020.84;4909924;29;20229;-67
2023/05/08 04:26:46;;;;;;;5.20;3.10;;;;;;;14.09;100.00;99012.97;4922875;29;20243;-67
2023/05/08 04:29:15;;;;;;;6.13;3.30;;;;;;;14.10;100.00;99022.47;4925798;29;20226;-67
2023/05/08 04:31:42;;;;;;;3.73;3.03;;;;;;;14.07;100.00;99016.72;4907740;29;20245;-67
2023/05/08 04:34:09;;;;;;;6.77;3.40;;;;;;;14.07;100.00;99017.56;4909566;29;20233;-67
2023/05/08 04:36:36;;;;;;;6.67;3.20;;;;;;;14.09;100.00;99017.38;4906754;29;20238;-67
2023/05/08 04:39:05;;;;;;;6.13;3.10;;;;;;;14.12;100.00;99014.41;4925307;29;20601;-67
2023/05/08 04:41:32;;;;;;;3.17;2.67;;;;;;;14.15;100.00;99012.31;4922568;29;20322;-67
2023/05/08 04:43:59;;;;;;;3.43;3.13;;;;;;;14.18;100.00;99016.38;4925386;29;20242;-67
2023/05/08 04:46:27;;;;;;;3.87;3.17;;;;;;;14.20;100.00;99019.66;4906624;29;20815;-67
2023/05/08 04:48:54;;;;;;;4.37;3.73;;;;;;;14.20;100.00;99024.94;4910987;29;20754;-67
2023/05/08 04:51:21;;;;;;;5.63;3.23;;;;;;;14.19;100.00;99025.91;4924862;29;20241;-67
2023/05/08 04:53:48;;;;;;;3.73;3.13;;;;;;;14.26;100.00;99026.88;4906504;29;20330;-67
2023/05/08 04:56:15;;;;;;;5.27;3.37;;;;;;;14.30;100.00;99028.19;4910932;29;20234;-67
2023/05/08 04:58:42;;;;;;;5.47;3.53;;;;;;;14.34;100.00;99020.00;4922558;29;20233;-67
2023/05/08 05:01:09;;;;;;;4.37;3.03;;;;;;;14.39;100.00;99025.56;4925149;29;20713;-67
2023/05/08 05:03:37;;;;;;;5.87;3.40;;;;;;;14.40;100.00;99029.84;4923308;29;20238;-67
2023/05/08 05:06:04;;;;;;;5.70;3.10;;;;;;;14.42;100.00;99028.66;4925627;29;20238;-67
2023/05/08 05:08:31;;;;;;;5.80;3.70;;;;;;;14.47;100.00;99041.31;4922304;29;20219;-67
2023/05/08 05:10:58;;;;;;;8.67;3.47;;;;;;;14.49;100.00;99036.72;4924362;29;20715;-67
2023/05/08 05:13:26;;;;;;;6.67;3.90;;;;;;;14.52;100.00;99046.91;4906246;29;20234;-67
2023/05/08 05:15:55;;;;;;;5.57;3.47;;;;;;;14.58;100.00;99043.63;4924362;29;20779;-67
2023/05/08 05:18:22;;;;;;;4.67;3.23;;;;;;;14.63;100.00;99044.91;4908627;29;20689;-67
2023/05/08 05:20:52;;;;;;;5.77;3.33;;;;;;;14.70;100.00;99045.94;4905364;29;20250;-67
2023/05/08 05:23:19;;;;;;;6.93;2.80;;;;;;;14.74;100.00;99039.34;4924492;29;20549;-67
2023/05/08 05:25:46;;;;;;;5.13;3.70;;;;;;;14.79;100.00;99051.97;4921145;29;20325;-67
2023/05/08 05:28:13;;;;;;;5.37;3.10;;;;;;;14.81;100.00;99050.00;4908986;29;20238;-67
2023/05/08 05:30:39;;;;;;;3.77;3.40;;;;;;;14.81;100.00;99055.25;4906930;29;20300;-67
2023/05/08 05:33:07;;;;;;;5.77;2.93;;;;;;;14.83;100.00;99046.22;4923674;29;20237;-67
2023/05/08 05:35:34;;;;;;;4.07;3.47;;;;;;;14.84;100.00;99057.53;4921350;29;20249;-67
2023/05/08 05:38:02;;;;;;;4.47;3.10;;;;;;;14.86;100.00;99056.38;4908576;29;20239;-67
2023/05/08 05:40:29;;;;;;;3.03;2.73;;;;;;;14.85;100.00;99061.81;4897554;29;20239;-67
2023/05/08 05:42:56;;;;;;;4.33;2.87;;;;;;;14.84;100.00;99060.97;4924151;29;20300;-68
2023/05/08 05:45:22;;;;;;;7.27;3.07;;;;;;;14.85;100.00;99062.63;4907731;29;20295;-67
2023/05/08 05:47:52;;;;;;;3.30;3.00;;;;;;;14.86;100.00;99068.72;4906256;29;20326;-67
2023/05/08 05:50:21;;;;;;;10.80;4.60;;;;;;;14.87;100.00;99060.66;4908251;29;20240;-68
2023/05/08 05:52:48;;;;;;;7.33;4.13;;;;;;;14.88;100.00;99061.47;4905589;29;20254;-68
2023/05/08 05:55:17;;;;;;;5.17;4.10;;;;;;;14.87;100.00;99068.53;4907482;29;20689;-67
2023/05/08 05:57:43;;;;;;;5.33;3.83;;;;;;;14.87;100.00;99062.47;4921308;29;20405;-67
2023/05/08 06:00:11;;;;;;;7.73;4.57;;;;;;;14.87;100.00;99063.28;4923806;29;20269;-67
2023/05/08 06:02:50;;;;;;;7.00;4.07;;;;;;;14.88;100.00;99064.91;4905596;29;20686;-67
2023/05/08 06:05:17;;;;;;;6.87;4.40;;;;;;;14.90;100.00;99076.09;4923800;29;20317;-67
2023/05/08 06:07:45;;;;;;;7.90;3.43;;;;;;;14.95;100.00;99074.75;4905234;29;20718;-67
2023/05/08 06:10:12;;;;;;;3.80;3.50;;;;;;;14.98;100.00;99079.69;4924169;29;20232;-67
2023/05/08 06:12:40;;;;;;;4.97;3.60;;;;;;;15.04;100.00;99076.38;4920814;29;20233;-67
2023/05/08 06:15:08;;;;;;;4.10;3.70;;;;;;;15.09;100.00;99081.97;4908792;29;20712;-67
2023/05/08 06:17:35;;;;;;;6.77;3.70;;;;;;;15.11;100.00;99077.34;4920726;29;20244;-67
2023/05/08 06:20:02;;;;;;;4.70;3.20;;;;;;;15.09;100.00;99084.59;4907483;29;20236;-67
2023/05/08 06:22:30;;;;;;;4.43;3.40;;;;;;;15.10;100.00;99078.34;4905130;29;20244;-67
2023/05/08 06:24:56;;;;;;;5.27;3.20;;;;;;;15.11;100.00;99082.59;4908987;29;20621;-67
2023/05/08 06:27:23;;;;;;;3.77;2.90;;;;;;;15.17;100.00;99081.94;4909201;29;20310;-67
2023/05/08 06:29:51;;;;;;;6.80;3.87;;;;;;;15.24;100.00;99084.72;4905359;29;20701;-67
2023/05/08 06:32:18;;;;;;;7.33;4.47;;;;;;;15.24;100.00;99089.16;4908449;29;20246;-67
2023/05/08 06:34:49;;;;;;;7.97;5.07;;;;;;;15.23;100.00;99090.97;4898862;29;20246;-67
2023/05/08 06:37:15;;;;;;;8.37;4.50;;;;;;;15.28;100.00;99091.28;4908981;29;20264;-68
2023/05/08 06:40:09;;;;;;;9.83;4.73;;;;;;;15.29;100.00;99092.91;4905926;29;20327;-67
2023/05/08 06:42:36;;;;;;;7.27;4.17;;;;;;;15.28;100.00;99085.19;4905969;29;20245;-67
2023/05/08 06:45:06;;;;;;;10.50;4.70;;;;;;;15.21;100.00;99092.94;4923100;29;20240;-67
2023/05/08 06:47:32;;;;;;;5.10;4.60;;;;;;;15.17;100.00;99089.81;4906174;29;20231;-67
2023/05/08 06:50:00;;;;;;;7.37;4.43;;;;;;;15.13;100.00;99091.16;4909062;29;20254;-68
2023/05/08 06:52:26;;;;;;;5.73;4.20;;;;;;;15.10;100.00;99088.06;4906241;29;20241;-68
2023/05/08 06:54:53;;;;;;;5.03;4.17;;;;;;;15.07;100.00;99089.19;4907949;29;20708;-67
2023/05/08 06:57:20;;;;;;;4.77;4.17;;;;;;;15.12;100.00;99097.41;4908813;29;20235;-67
2023/05/08 06:59:49;;;;;;;4.10;3.70;;;;;;;15.20;100.00;99086.84;4906113;29;20265;-67
2023/05/08 07:02:16;;;;;;;5.13;4.63;;;;;;;15.29;100.00;99092.09;4908668;29;20250;-67
2023/05/08 07:04:49;;;;;;;4.97;4.20;;;;;;;15.33;100.00;99096.00;4906042;29;20848;-67
2023/05/08 07:07:15;;;;;;;4.67;3.60;;;;;;;15.41;100.00;99095.16;4908874;29;20230;-68
2023/05/08 07:10:08;;;;;;;4.03;3.63;;;;;;;15.35;100.00;99089.63;4906321;29;20403;-68
2023/05/08 07:12:35;;;;;;;5.60;3.40;;;;;;;15.39;100.00;99092.72;4906101;29;20242;-68
2023/05/08 07:15:01;;;;;;;4.57;3.97;;;;;;;15.43;100.00;99099.28;4907878;29;20744;-68
2023/05/08 07:17:31;;;;;;;5.50;4.10;;;;;;;15.47;100.00;99095.31;4905702;29;20305;-68
2023/05/08 07:19:58;;;;;;;6.90;4.10;;;;;;;15.52;100.00;99097.41;4908423;29;20240;-68
2023/05/08 07:22:24;;;;;;;5.73;4.27;;;;;;;15.58;100.00;99095.94;4905910;29;20229;-68
2023/05/08 07:24:51;;;;;;;4.60;4.20;;;;;;;15.66;100.00;99095.88;4907935;29;20237;-68
2023/05/08 07:27:17;;;;;;;6.20;5.60;;;;;;;15.61;100.00;99099.00;4907457;29;20249;-68
2023/05/08 07:29:49;;;;;;;5.47;4.97;;;;;;;15.57;100.00;99102.19;4904663;29;20240;-68
2023/05/08 07:32:15;;;;;;;7.07;5.93;;;;;;;15.57;100.00;99102.19;4908525;29;20242;-67
2023/05/08 07:34:47;;;;;;;5.67;5.07;;;;;;;15.67;100.00;99100.16;4905315;29;20737;-67
2023/05/08 07:37:14;;;;;;;5.83;5.20;;;;;;;15.78;100.00;99098.94;4898913;29;20307;-67
2023/05/08 07:39:40;;;;;;;7.73;6.77;;;;;;;15.78;100.00;99098.94;4906309;29;20548;-67
2023/05/08 07:42:07;;;;;;;8.30;6.23;;;;;;;15.88;100.00;99102.19;4912159;29;20284;-67
2023/05/08 07:44:34;;;;;;;6.67;5.63;;;;;;;16.07;100.00;99103.56;4909096;29;20284;-67
2023/05/08 07:47:00;;;;;;;7.07;5.00;;;;;;;16.36;100.00;99095.97;4912026;29;20246;-67
2023/05/08 07:49:27;;;;;;;7.87;5.33;;;;;;;16.47;100.00;99106.06;4908351;29;20321;-67
2023/05/08 07:51:55;;;;;;;5.80;5.30;;;;;;;16.50;100.00;99107.53;4911917;29;20642;-67
2023/05/08 07:54:21;;;;;;;6.60;5.20;;;;;;;16.33;100.00;99102.41;4911703;29;20250;-67
2023/05/08 07:56:48;;;;;;;6.03;5.40;;;;;;;16.45;100.00;99104.63;4907300;29;20295;-67
2023/05/08 07:59:15;;;;;;;6.83;5.90;;;;;;;16.40;100.00;99104.31;4911849;29;20241;-67
2023/05/08 08:01:45;;;;;;;7.23;5.73;;;;;;;16.48;100.00;99101.63;4908912;29;20275;-67
2023/05/08 08:04:12;;;;;;;12.00;7.33;;;;;;;16.81;100.00;99114.53;4911736;29;20238;-67
2023/05/08 08:06:39;;;;;;;7.40;5.07;;;;;;;16.94;100.00;99114.72;4908750;29;20235;-67
2023/05/08 08:09:07;;;;;;;6.03;4.97;;;;;;;17.06;100.00;99115.13;4911874;29;20237;-67
2023/05/08 08:11:34;;;;;;;6.73;5.80;;;;;;;17.13;100.00;99109.94;4908478;29;20591;-67
2023/05/08 08:14:00;;;;;;;8.20;5.07;;;;;;;17.24;100.00;99112.13;4911233;29;20296;-67
2023/05/08 08:16:27;;;;;;;5.60;4.67;;;;;;;17.36;100.00;99114.28;4907864;29;20580;-67
2023/05/08 08:18:53;;;;;;;6.33;4.83;;;;;;;17.50;100.00;99115.28;4911179;29;20232;-67
2023/05/08 08:21:20;;;;;;;7.87;5.00;;;;;;;17.80;100.00;99113.41;4911007;29;20247;-67
2023/05/08 08:23:46;;;;;;;7.63;5.63;;;;;;;18.02;100.00;99120.56;4908506;29;20312;-67
2023/05/08 08:26:14;;;;;;;5.10;4.63;;;;;;;18.13;100.00;99125.38;4911497;29;20296;-67
2023/05/08 08:28:41;;;;;;;5.53;4.80;;;;;;;18.24;100.00;99116.94;4908112;29;20288;-67
2023/05/08 08:31:07;;;;;;;7.60;4.70;;;;;;;18.43;100.00;99120.78;4909563;29;20248;-67
2023/05/08 08:33:34;;;;;;;5.57;4.93;;;;;;;18.60;100.00;99112.56;4908096;29;20257;-68
2023/05/08 08:36:01;;;;;;;7.60;5.27;;;;;;;18.80;100.00;99110.06;4911237;29;20237;-68
2023/05/08 08:38:27;;;;;;;4.90;4.37;;;;;;;19.25;100.00;99111.63;4908062;29;20235;-68
2023/05/08 08:40:54;;;;;;;6.27;5.13;;;;;;;19.46;95.45;99108.88;4911225;29;20237;-68
2023/05/08 08:43:22;;;;;;;6.07;4.60;;;;;;;19.82;96.54;99117.56;4909923;29;20252;-68
2023/05/08 08:45:48;;;;;;;6.13;5.10;;;;;;;20.00;97.14;99117.00;4907339;29;20241;-68
2023/05/08 08:48:16;;;;;;;5.67;4.20;;;;;;;20.42;94.63;99118.72;4910242;29;20251;-68
2023/05/08 08:50:47;;;;;;;4.87;3.87;;;;;;;20.64;93.29;99117.50;4906797;29;20594;-68
2023/05/08 08:53:21;;;;;;;5.37;4.10;;;;;;;20.54;90.26;99116.25;4909721;29;20222;-68
2023/05/08 08:55:54;;;;;;;4.40;3.40;;;;;;;20.70;89.87;99121.16;4907569;29;20241;-68
2023/05/08 08:58:31;;;;;;;4.43;2.90;;;;;;;20.82;87.23;99117.91;4909810;29;20282;-68
2023/05/08 09:00:59;;;;;;;3.27;2.70;;;;;;;20.89;86.41;99118.72;4907106;29;20242;-68
2023/05/08 09:03:26;;;;;;;3.43;2.63;;;;;;;20.95;86.83;99123.22;4906619;29;20286;-68
2023/05/08 09:05:53;;;;;;;2.70;2.50;;;;;;;21.25;85.24;99130.69;4910558;29;20239;-68
2023/05/08 09:08:19;;;;;;;3.23;2.73;;;;;;;20.91;79.86;99122.00;4910220;29;20240;-68
2023/05/08 09:10:46;;;;;;;2.63;1.93;;;;;;;21.10;83.62;99125.63;4907585;29;20238;-68
2023/05/08 09:13:13;;;;;;;5.70;3.07;;;;;;;21.07;81.18;99126.88;4909803;29;20218;-68
2023/05/08 09:15:41;;;;;;;4.93;4.53;;;;;;;20.71;83.37;99127.25;4906614;29;20219;-68
2023/05/08 09:18:07;;;;;;;3.93;3.20;;;;;;;20.82;86.70;99120.56;4909855;29;20300;-68
2023/05/08 09:20:35;;;;;;;3.80;3.30;;;;;;;21.14;87.32;99134.00;4892872;29;20220;-67
2023/05/08 09:23:02;;;;;;;4.17;2.73;;;;;;;21.37;84.07;99131.66;4903387;29;20240;-67
2023/05/08 09:25:41;;;;;;;3.10;2.80;;;;;;;21.41;82.04;99132.09;4885381;29;20284;-67
2023/05/08 09:28:18;;;;;;;2.60;2.40;;;;;;;21.17;79.28;99126.41;4909382;29;20225;-67
2023/05/08 09:30:57;;;;;;;4.30;3.00;;;;;;;21.29;81.09;99136.41;4905439;29;20693;-67
2023/05/08 09:33:27;;;;;;;3.20;2.70;;;;;;;21.52;79.27;99128.78;4908255;29;20320;-67
2023/05/08 09:35:56;;;;;;;3.77;2.17;;;;;;;21.38;78.59;99127.19;4905911;29;20594;-68
2023/05/08 09:38:33;;;;;;;3.37;2.27;;;;;;;21.46;76.78;99132.28;4907978;29;20228;-69
2023/05/08 09:41:08;;;;;;;3.07;2.57;;;;;;;21.00;77.34;99128.72;4907808;29;20258;-68
2023/05/08 09:43:34;;;;;;;4.10;2.17;;;;;;;21.13;83.66;99138.47;4902455;29;20240;-67
2023/05/08 09:46:25;;;;;;;3.13;2.50;;;;;;;21.12;80.89;99141.34;4906242;29;20243;-67
2023/05/08 09:48:53;;;;;;;2.50;2.30;;;;;;;20.93;78.26;99134.00;4896970;29;20235;-67
2023/05/08 09:51:21;;;;;;;4.13;2.40;;;;;;;20.99;83.81;99136.88;4905278;29;20240;-67
2023/05/08 09:53:51;;;;;;;2.60;2.40;;;;;;;20.79;86.91;99135.03;4905140;29;20246;-67
2023/05/08 09:56:32;;;;;;;2.83;2.50;;;;;;;20.64;86.13;99133.41;4908538;29;20228;-68
2023/05/08 09:58:58;;;;;;;2.87;2.67;;;;;;;20.56;87.96;99132.78;4907644;29;20311;-68
2023/05/08 10:01:32;;;;;;;3.80;3.40;;;;;;;19.86;87.59;99133.84;4905638;29;20239;-68
2023/05/08 10:03:59;;;;;;;5.97;5.37;;;;;;;18.96;93.20;99132.81;4906977;29;20240;-67
2023/05/08 10:06:27;;;;;;;9.93;7.10;;;;;;;18.88;94.67;99130.28;4904467;29;20220;-68
2023/05/08 10:09:10;;;;;;;13.37;10.43;;;;;;;18.10;100.00;99134.47;4923186;29;20242;-68
2023/05/08 10:11:38;;;;;;;13.30;9.83;;;;;;;18.03;100.00;99130.13;4904949;29;20233;-67
2023/05/08 10:14:05;;;;;;;23.90;9.63;;;;;;;17.85;100.00;99139.25;4908550;29;20229;-67
2023/05/08 10:16:38;;;;;;;15.87;9.73;;;;;;;17.30;100.00;99139.59;4905889;29;20344;-67
2023/05/08 10:19:12;;;;;;;11.90;8.50;;;;;;;17.26;100.00;99136.50;4908564;29;20693;-67
2023/05/08 10:21:41;;;;;;;11.60;7.57;;;;;;;17.32;100.00;99145.50;4903510;29;20290;-67
2023/05/08 10:24:14;;;;;;;12.77;7.70;;;;;;;17.18;100.00;99144.50;4908168;29;20223;-67
2023/05/08 10:26:43;;;;;;;11.20;7.93;;;;;;;17.20;100.00;99146.97;4904294;29;20295;-65
2023/05/08 10:29:16;;;;;;;11.50;7.30;;;;;;;17.27;100.00;99148.69;4922234;29;20706;-65
2023/05/08 10:31:46;;;;;;;8.70;6.73;;;;;;;17.43;100.00;99148.69;4904469;29;20239;-65
2023/05/08 10:34:18;;;;;;;8.20;6.40;;;;;;;17.31;100.00;99146.50;4907198;29;20235;-63
2023/05/08 10:36:46;;;;;;;6.63;5.30;;;;;;;17.22;100.00;99140.50;4904927;29;20246;-63
2023/05/08 10:39:14;;;;;;;5.13;4.63;;;;;;;17.19;100.00;99140.84;4902074;29;20238;-63
2023/05/08 10:41:41;;;;;;;6.70;5.30;;;;;;;17.34;100.00;99143.50;4902557;29;20228;-64
2023/05/08 10:44:09;;;;;;;5.53;3.37;;;;;;;17.50;100.00;99133.75;4907420;29;20231;-64
2023/05/08 10:46:45;;;;;;;3.97;3.37;;;;;;;17.57;100.00;99137.28;4904444;29;20224;-64
2023/05/08 10:49:19;;;;;;;3.30;2.97;;;;;;;17.71;100.00;99135.66;4907403;29;20228;-64
2023/05/08 10:51:55;;;;;;;5.20;2.97;;;;;;;17.70;100.00;99145.38;4904493;29;20232;-64
2023/05/08 10:54:30;;;;;;;3.47;2.87;;;;;;;17.69;100.00;99142.94;4907859;29;20589;-64
2023/05/08 10:57:09;;;;;;;5.33;3.20;;;;;;;17.77;100.00;99132.28;4904486;29;20245;-64
2023/05/08 10:59:36;;;;;;;3.63;2.80;;;;;;;17.83;100.00;99142.09;4906780;28;20244;-63
2023/05/08 11:02:07;;;;;;;4.07;3.10;;;;;;;17.98;100.00;99135.97;4906999;29;20244;-64
2023/05/08 11:04:35;;;;;;;4.53;4.10;;;;;;;17.94;100.00;99129.41;4905230;29;20223;-63
2023/05/08 11:07:03;;;;;;;6.10;4.67;;;;;;;18.04;100.00;99129.94;4907028;29;20236;-63
2023/05/08 11:09:45;;;;;;;6.93;5.10;;;;;;;18.14;100.00;99129.66;4903992;29;20243;-63
2023/05/08 11:12:21;;;;;;;12.23;4.77;;;;;;;18.13;100.00;99123.53;4899971;29;20241;-63
2023/05/08 11:15:00;;;;;;;4.83;4.10;;;;;;;18.34;100.00;99135.13;4905705;29;21159;-63
2023/05/08 11:17:27;;;;;;;6.30;3.90;;;;;;;18.35;100.00;99134.13;4922851;29;20233;-63
2023/05/08 11:19:59;;;;;;;5.10;3.63;;;;;;;18.41;100.00;99124.63;4912734;29;20233;-63
2023/05/08 11:22:28;;;;;;;5.87;3.50;;;;;;;18.51;100.00;99132.22;4908711;29;20621;-64
2023/05/08 11:24:57;;;;;;;4.67;3.03;;;;;;;18.42;100.00;99127.06;4911512;29;20291;-64
2023/05/08 11:27:39;;;;;;;6.07;3.37;;;;;;;18.54;100.00;99118.63;4911084;29;20233;-63
2023/05/08 11:30:19;;;;;;;3.58;2.72;;;;;;;18.67;100.00;99124.03;4904211;29;20499;-64
2023/05/08 11:33:11;;;;;;;4.87;2.30;;;;;;;18.68;100.00;99111.59;4908439;29;20239;-64
2023/05/08 11:35:57;;;;;;;6.07;2.30;;;;;;;18.64;100.00;99113.00;4909060;29;20323;-64
2023/05/08 11:38:30;;;;;;;3.87;2.50;;;;;;;18.83;100.00;99116.81;4909794;29;20697;-64
2023/05/08 11:40:59;;;;;;;2.30;1.87;;;;;;;19.02;100.00;99117.97;4910858;29;20272;-63
2023/05/08 11:43:31;;;;;;;2.33;1.90;;;;;;;18.97;99.80;99109.81;4909218;28;20242;-62
2023/05/08 11:46:00;;;;;;;2.13;1.70;;;;;;;19.16;99.32;99110.94;4910368;29;20756;-63